sensor_id;sensor_type;location;lat;lon;timestamp;temperature;humidity
6098;DHT22;3077;50.922;6.584;2022-07-22T00:01:28;16.80;99.90
6098;DHT22;3077;50.922;6.584;2022-07-22T00:03:54;16.70;99.90
6098;DHT22;3077;50.922;6.584;2022-07-22T00:06:19;16.70;99.90
6098;DHT22;3077;50.922;6.584;2022-07-22T00:08:45;16.70;99.90
6098;DHT22;3077;50.922;6.584;2022-07-22T00:11:11;16.70;99.90
6098;DHT22;3077;50.922;6.584;2022-07-22T00:13:36;16.70;99.90
6098;DHT22;3077;50.922;6.584;2022-07-22T00:16:02;16.70;99.90
6098;DHT22;3077;50.922;6.584;2022-07-22T00:18:28;16.70;99.90
6098;DHT22;3077;50.922;6.584;2022-07-22T00:20:55;16.60;99.90
6098;DHT22;3077;50.922;6.584;2022-07-22T00:23:20;16.70;99.90
6098;DHT22;3077;50.922;6.584;2022-07-22T00:25:46;16.60;99.90
6098;DHT22;3077;50.922;6.584;2022-07-22T00:28:12;16.60;99.90
6098;DHT22;3077;50.922;6.584;2022-07-22T00:30:37;16.70;99.90
6098;DHT22;3077;50.922;6.584;2022-07-22T00:33:03;16.60;99.90
6098;DHT22;3077;50.922;6.584;2022-07-22T00:35:29;16.60;99.90
6098;DHT22;3077;50.922;6.584;2022-07-22T00:37:54;16.60;99.90
6098;DHT22;3077;50.922;6.584;2022-07-22T00:40:20;16.60;99.90
6098;DHT22;3077;50.922;6.584;2022-07-22T00:42:46;16.70;99.90
6098;DHT22;3077;50.922;6.584;2022-07-22T00:45:11;16.60;99.90
6098;DHT22;3077;50.922;6.584;2022-07-22T00:47:37;16.70;99.90
6098;DHT22;3077;50.922;6.584;2022-07-22T00:50:04;16.70;99.90
6098;DHT22;3077;50.922;6.584;2022-07-22T00:52:31;16.70;99.90
6098;DHT22;3077;50.922;6.584;2022-07-22T00:54:58;16.70;99.90
6098;DHT22;3077;50.922;6.584;2022-07-22T00:57:24;16.70;99.90
6098;DHT22;3077;50.922;6.584;2022-07-22T00:59:50;16.70;99.90
6098;DHT22;3077;50.922;6.584;2022-07-22T01:02:16;16.70;99.90
6098;DHT22;3077;50.922;6.584;2022-07-22T01:04:42;16.80;99.90
6098;DHT22;3077;50.922;6.584;2022-07-22T01:07:08;16.80;99.90
6098;DHT22;3077;50.922;6.584;2022-07-22T01:09:33;16.80;99.90
6098;DHT22;3077;50.922;6.584;2022-07-22T01:12:00;16.80;99.90
6098;DHT22;3077;50.922;6.584;2022-07-22T01:14:26;16.90;99.90
6098;DHT22;3077;50.922;6.584;2022-07-22T01:16:51;16.90;99.90
6098;DHT22;3077;50.922;6.584;2022-07-22T01:19:17;17.00;99.90
6098;DHT22;3077;50.922;6.584;2022-07-22T01:21:42;17.00;99.90
6098;DHT22;3077;50.922;6.584;2022-07-22T01:24:08;17.00;99.90
6098;DHT22;3077;50.922;6.584;2022-07-22T01:26:34;17.00;99.90
6098;DHT22;3077;50.922;6.584;2022-07-22T01:29:00;17.00;99.90
6098;DHT22;3077;50.922;6.584;2022-07-22T01:31:26;17.10;99.90
6098;DHT22;3077;50.922;6.584;2022-07-22T01:33:53;17.10;99.90
6098;DHT22;3077;50.922;6.584;2022-07-22T01:36:19;17.20;99.90
6098;DHT22;3077;50.922;6.584;2022-07-22T01:38:45;17.20;99.90
6098;DHT22;3077;50.922;6.584;2022-07-22T01:41:11;17.20;99.90
6098;DHT22;3077;50.922;6.584;2022-07-22T01:43:37;17.30;99.90
6098;DHT22;3077;50.922;6.584;2022-07-22T01:46:03;17.30;99.90
6098;DHT22;3077;50.922;6.584;2022-07-22T01:48:29;17.30;99.90
6098;DHT22;3077;50.922;6.584;2022-07-22T01:50:55;17.40;99.90
6098;DHT22;3077;50.922;6.584;2022-07-22T01:53:20;17.50;99.90
6098;DHT22;3077;50.922;6.584;2022-07-22T01:55:46;17.40;99.90
6098;DHT22;3077;50.922;6.584;2022-07-22T01:58:12;17.30;99.90
6098;DHT22;3077;50.922;6.584;2022-07-22T02:00:38;17.40;99.90
6098;DHT22;3077;50.922;6.584;2022-07-22T02:03:04;17.40;99.90
6098;DHT22;3077;50.922;6.584;2022-07-22T02:05:30;17.40;99.90
6098;DHT22;3077;50.922;6.584;2022-07-22T02:08:03;17.40;99.90
6098;DHT22;3077;50.922;6.584;2022-07-22T02:10:29;17.40;99.90
6098;DHT22;3077;50.922;6.584;2022-07-22T02:12:57;17.30;99.90
6098;DHT22;3077;50.922;6.584;2022-07-22T02:15:23;17.10;99.90
6098;DHT22;3077;50.922;6.584;2022-07-22T02:17:48;17.10;99.90
6098;DHT22;3077;50.922;6.584;2022-07-22T02:20:14;17.00;99.90
6098;DHT22;3077;50.922;6.584;2022-07-22T02:22:40;16.90;99.90
6098;DHT22;3077;50.922;6.584;2022-07-22T02:25:06;16.80;99.90
6098;DHT22;3077;50.922;6.584;2022-07-22T02:27:31;16.70;99.90
6098;DHT22;3077;50.922;6.584;2022-07-22T02:29:57;16.70;99.90
6098;DHT22;3077;50.922;6.584;2022-07-22T02:32:23;16.60;99.90
6098;DHT22;3077;50.922;6.584;2022-07-22T02:34:48;16.60;99.90
6098;DHT22;3077;50.922;6.584;2022-07-22T02:37:14;16.50;99.90
6098;DHT22;3077;50.922;6.584;2022-07-22T02:39:40;16.50;99.90
6098;DHT22;3077;50.922;6.584;2022-07-22T02:42:05;16.50;99.90
6098;DHT22;3077;50.922;6.584;2022-07-22T02:44:31;16.50;99.90
6098;DHT22;3077;50.922;6.584;2022-07-22T02:46:56;16.40;99.90
6098;DHT22;3077;50.922;6.584;2022-07-22T02:49:22;16.50;99.90
6098;DHT22;3077;50.922;6.584;2022-07-22T02:51:48;16.40;99.90
6098;DHT22;3077;50.922;6.584;2022-07-22T02:54:13;16.40;99.90
6098;DHT22;3077;50.922;6.584;2022-07-22T02:56:39;16.40;99.90
6098;DHT22;3077;50.922;6.584;2022-07-22T02:59:04;16.40;99.90
6098;DHT22;3077;50.922;6.584;2022-07-22T03:01:30;16.40;99.90
6098;DHT22;3077;50.922;6.584;2022-07-22T03:03:56;16.40;99.90
6098;DHT22;3077;50.922;6.584;2022-07-22T03:06:21;16.40;99.90
6098;DHT22;3077;50.922;6.584;2022-07-22T03:08:47;16.40;99.90
6098;DHT22;3077;50.922;6.584;2022-07-22T03:11:13;16.40;99.90
6098;DHT22;3077;50.922;6.584;2022-07-22T03:13:38;16.40;99.90
6098;DHT22;3077;50.922;6.584;2022-07-22T03:16:04;16.40;99.90
6098;DHT22;3077;50.922;6.584;2022-07-22T03:18:30;16.40;99.90
6098;DHT22;3077;50.922;6.584;2022-07-22T03:20:55;16.40;99.90
6098;DHT22;3077;50.922;6.584;2022-07-22T03:23:21;16.40;99.90
6098;DHT22;3077;50.922;6.584;2022-07-22T03:25:47;16.50;99.90
6098;DHT22;3077;50.922;6.584;2022-07-22T03:28:12;16.40;99.90
6098;DHT22;3077;50.922;6.584;2022-07-22T03:30:38;16.40;99.90
6098;DHT22;3077;50.922;6.584;2022-07-22T03:33:04;16.50;99.90
6098;DHT22;3077;50.922;6.584;2022-07-22T03:35:29;16.40;99.90
6098;DHT22;3077;50.922;6.584;2022-07-22T03:37:55;16.40;99.90
6098;DHT22;3077;50.922;6.584;2022-07-22T03:40:21;16.40;99.90
6098;DHT22;3077;50.922;6.584;2022-07-22T03:42:46;16.50;99.90
6098;DHT22;3077;50.922;6.584;2022-07-22T03:45:12;16.50;99.90
6098;DHT22;3077;50.922;6.584;2022-07-22T03:47:37;16.50;99.90
6098;DHT22;3077;50.922;6.584;2022-07-22T03:50:04;16.50;99.90
6098;DHT22;3077;50.922;6.584;2022-07-22T03:52:30;16.50;99.90
6098;DHT22;3077;50.922;6.584;2022-07-22T03:54:55;16.50;99.90
6098;DHT22;3077;50.922;6.584;2022-07-22T03:57:21;16.40;99.90
6098;DHT22;3077;50.922;6.584;2022-07-22T03:59:47;16.50;99.90
6098;DHT22;3077;50.922;6.584;2022-07-22T04:02:13;16.40;99.90
6098;DHT22;3077;50.922;6.584;2022-07-22T04:04:39;16.40;99.90
6098;DHT22;3077;50.922;6.584;2022-07-22T04:07:04;16.40;99.90
6098;DHT22;3077;50.922;6.584;2022-07-22T04:09:30;16.30;99.90
6098;DHT22;3077;50.922;6.584;2022-07-22T04:11:56;16.40;99.90
6098;DHT22;3077;50.922;6.584;2022-07-22T04:14:21;16.30;99.90
6098;DHT22;3077;50.922;6.584;2022-07-22T04:16:47;16.30;99.90
6098;DHT22;3077;50.922;6.584;2022-07-22T04:19:13;16.40;99.90
6098;DHT22;3077;50.922;6.584;2022-07-22T04:21:38;16.40;99.90
6098;DHT22;3077;50.922;6.584;2022-07-22T04:24:05;16.40;99.90
6098;DHT22;3077;50.922;6.584;2022-07-22T04:26:31;16.40;99.90
6098;DHT22;3077;50.922;6.584;2022-07-22T04:28:57;16.40;99.90
6098;DHT22;3077;50.922;6.584;2022-07-22T04:31:22;16.50;99.90
6098;DHT22;3077;50.922;6.584;2022-07-22T04:33:48;16.50;99.90
6098;DHT22;3077;50.922;6.584;2022-07-22T04:36:14;16.60;99.90
6098;DHT22;3077;50.922;6.584;2022-07-22T04:38:39;16.60;99.90
6098;DHT22;3077;50.922;6.584;2022-07-22T04:41:05;16.60;99.90
6098;DHT22;3077;50.922;6.584;2022-07-22T04:43:31;16.50;99.90
6098;DHT22;3077;50.922;6.584;2022-07-22T04:45:56;16.50;99.90
6098;DHT22;3077;50.922;6.584;2022-07-22T04:48:22;16.50;99.90
6098;DHT22;3077;50.922;6.584;2022-07-22T04:50:48;16.50;99.90
6098;DHT22;3077;50.922;6.584;2022-07-22T04:53:14;16.50;99.90
6098;DHT22;3077;50.922;6.584;2022-07-22T04:55:39;16.40;99.90
6098;DHT22;3077;50.922;6.584;2022-07-22T04:58:05;16.50;99.90
6098;DHT22;3077;50.922;6.584;2022-07-22T05:00:31;16.40;99.90
6098;DHT22;3077;50.922;6.584;2022-07-22T05:02:57;16.50;99.90
6098;DHT22;3077;50.922;6.584;2022-07-22T05:05:22;16.50;99.90
6098;DHT22;3077;50.922;6.584;2022-07-22T05:07:48;16.50;99.90
6098;DHT22;3077;50.922;6.584;2022-07-22T05:10:14;16.50;99.90
6098;DHT22;3077;50.922;6.584;2022-07-22T05:12:39;16.50;99.90
6098;DHT22;3077;50.922;6.584;2022-07-22T05:15:05;16.50;99.90
6098;DHT22;3077;50.922;6.584;2022-07-22T05:17:31;16.50;99.90
6098;DHT22;3077;50.922;6.584;2022-07-22T05:19:57;16.50;99.90
6098;DHT22;3077;50.922;6.584;2022-07-22T05:22:22;16.50;99.90
6098;DHT22;3077;50.922;6.584;2022-07-22T05:24:48;16.50;99.90
6098;DHT22;3077;50.922;6.584;2022-07-22T05:27:13;16.50;99.90
6098;DHT22;3077;50.922;6.584;2022-07-22T05:29:39;16.60;99.90
6098;DHT22;3077;50.922;6.584;2022-07-22T05:32:05;16.60;99.90
6098;DHT22;3077;50.922;6.584;2022-07-22T05:34:30;16.60;99.90
6098;DHT22;3077;50.922;6.584;2022-07-22T05:36:56;16.70;99.90
6098;DHT22;3077;50.922;6.584;2022-07-22T05:39:21;16.80;99.90
6098;DHT22;3077;50.922;6.584;2022-07-22T05:41:47;16.80;99.90
6098;DHT22;3077;50.922;6.584;2022-07-22T05:44:13;16.80;99.90
6098;DHT22;3077;50.922;6.584;2022-07-22T05:46:39;16.90;99.90
6098;DHT22;3077;50.922;6.584;2022-07-22T05:49:05;16.90;99.90
6098;DHT22;3077;50.922;6.584;2022-07-22T05:51:30;16.90;99.90
6098;DHT22;3077;50.922;6.584;2022-07-22T05:53:56;16.90;99.90
6098;DHT22;3077;50.922;6.584;2022-07-22T05:56:22;17.00;99.90
6098;DHT22;3077;50.922;6.584;2022-07-22T05:58:47;17.00;99.90
6098;DHT22;3077;50.922;6.584;2022-07-22T06:01:13;17.10;99.90
6098;DHT22;3077;50.922;6.584;2022-07-22T06:03:39;17.00;99.90
6098;DHT22;3077;50.922;6.584;2022-07-22T06:06:04;17.10;99.90
6098;DHT22;3077;50.922;6.584;2022-07-22T06:08:34;17.10;99.90
6098;DHT22;3077;50.922;6.584;2022-07-22T06:11:00;17.10;99.90
6098;DHT22;3077;50.922;6.584;2022-07-22T06:13:26;17.10;99.90
6098;DHT22;3077;50.922;6.584;2022-07-22T06:15:52;17.10;99.90
6098;DHT22;3077;50.922;6.584;2022-07-22T06:18:17;17.10;99.90
6098;DHT22;3077;50.922;6.584;2022-07-22T06:20:43;17.20;99.90
6098;DHT22;3077;50.922;6.584;2022-07-22T06:23:09;17.20;99.90
6098;DHT22;3077;50.922;6.584;2022-07-22T06:25:35;17.30;99.90
6098;DHT22;3077;50.922;6.584;2022-07-22T06:28:00;17.40;99.90
6098;DHT22;3077;50.922;6.584;2022-07-22T06:30:26;17.50;99.90
6098;DHT22;3077;50.922;6.584;2022-07-22T06:32:52;17.60;99.90
6098;DHT22;3077;50.922;6.584;2022-07-22T06:35:18;17.60;99.90
6098;DHT22;3077;50.922;6.584;2022-07-22T06:37:44;17.60;99.90
6098;DHT22;3077;50.922;6.584;2022-07-22T06:40:10;17.60;99.90
6098;DHT22;3077;50.922;6.584;2022-07-22T06:42:36;17.80;99.90
6098;DHT22;3077;50.922;6.584;2022-07-22T06:45:02;17.80;99.90
6098;DHT22;3077;50.922;6.584;2022-07-22T06:47:28;17.80;99.90
6098;DHT22;3077;50.922;6.584;2022-07-22T06:49:54;17.90;99.90
6098;DHT22;3077;50.922;6.584;2022-07-22T06:52:20;18.00;99.90
6098;DHT22;3077;50.922;6.584;2022-07-22T06:54:46;18.20;99.90
6098;DHT22;3077;50.922;6.584;2022-07-22T06:57:11;18.20;99.90
6098;DHT22;3077;50.922;6.584;2022-07-22T06:59:37;18.20;99.90
6098;DHT22;3077;50.922;6.584;2022-07-22T07:02:02;18.30;99.90
6098;DHT22;3077;50.922;6.584;2022-07-22T07:04:29;18.40;99.90
6098;DHT22;3077;50.922;6.584;2022-07-22T07:06:55;18.50;99.90
6098;DHT22;3077;50.922;6.584;2022-07-22T07:09:20;18.50;99.90
6098;DHT22;3077;50.922;6.584;2022-07-22T07:11:46;18.60;99.90
6098;DHT22;3077;50.922;6.584;2022-07-22T07:14:11;18.60;99.90
6098;DHT22;3077;50.922;6.584;2022-07-22T07:16:37;18.60;99.90
6098;DHT22;3077;50.922;6.584;2022-07-22T07:19:03;18.50;99.90
6098;DHT22;3077;50.922;6.584;2022-07-22T07:21:29;18.50;99.90
6098;DHT22;3077;50.922;6.584;2022-07-22T07:23:54;18.60;99.90
6098;DHT22;3077;50.922;6.584;2022-07-22T07:26:21;18.60;99.90
6098;DHT22;3077;50.922;6.584;2022-07-22T07:28:46;18.70;99.90
6098;DHT22;3077;50.922;6.584;2022-07-22T07:31:12;18.80;99.90
6098;DHT22;3077;50.922;6.584;2022-07-22T07:33:38;18.80;99.90
6098;DHT22;3077;50.922;6.584;2022-07-22T07:36:04;18.90;99.90
6098;DHT22;3077;50.922;6.584;2022-07-22T07:38:29;18.80;99.90
6098;DHT22;3077;50.922;6.584;2022-07-22T07:40:55;18.70;99.90
6098;DHT22;3077;50.922;6.584;2022-07-22T07:43:21;18.70;99.90
6098;DHT22;3077;50.922;6.584;2022-07-22T07:45:46;18.70;99.90
6098;DHT22;3077;50.922;6.584;2022-07-22T07:48:12;18.80;99.90
6098;DHT22;3077;50.922;6.584;2022-07-22T07:50:38;18.90;99.90
6098;DHT22;3077;50.922;6.584;2022-07-22T07:53:04;18.90;99.90
6098;DHT22;3077;50.922;6.584;2022-07-22T07:55:29;18.90;99.90
6098;DHT22;3077;50.922;6.584;2022-07-22T07:57:55;19.00;99.90
6098;DHT22;3077;50.922;6.584;2022-07-22T08:00:23;19.00;99.90
6098;DHT22;3077;50.922;6.584;2022-07-22T08:02:49;19.00;99.90
6098;DHT22;3077;50.922;6.584;2022-07-22T08:05:15;19.00;99.90
6098;DHT22;3077;50.922;6.584;2022-07-22T08:07:41;19.10;99.90
6098;DHT22;3077;50.922;6.584;2022-07-22T08:10:07;19.20;99.90
6098;DHT22;3077;50.922;6.584;2022-07-22T08:12:33;19.40;99.90
6098;DHT22;3077;50.922;6.584;2022-07-22T08:14:59;19.50;99.90
6098;DHT22;3077;50.922;6.584;2022-07-22T08:17:25;19.70;99.90
6098;DHT22;3077;50.922;6.584;2022-07-22T08:19:50;19.80;99.90
6098;DHT22;3077;50.922;6.584;2022-07-22T08:22:16;19.90;99.90
6098;DHT22;3077;50.922;6.584;2022-07-22T08:24:42;20.10;99.90
6098;DHT22;3077;50.922;6.584;2022-07-22T08:27:07;20.20;99.90
6098;DHT22;3077;50.922;6.584;2022-07-22T08:29:33;20.40;99.90
6098;DHT22;3077;50.922;6.584;2022-07-22T08:31:59;20.50;99.90
6098;DHT22;3077;50.922;6.584;2022-07-22T08:34:24;20.70;99.90
6098;DHT22;3077;50.922;6.584;2022-07-22T08:36:50;20.80;99.90
6098;DHT22;3077;50.922;6.584;2022-07-22T08:39:16;21.10;99.90
6098;DHT22;3077;50.922;6.584;2022-07-22T08:41:41;21.20;99.90
6098;DHT22;3077;50.922;6.584;2022-07-22T08:44:09;21.30;99.90
6098;DHT22;3077;50.922;6.584;2022-07-22T08:46:35;21.40;99.90
6098;DHT22;3077;50.922;6.584;2022-07-22T08:49:01;21.50;99.90
6098;DHT22;3077;50.922;6.584;2022-07-22T08:51:28;21.70;99.90
6098;DHT22;3077;50.922;6.584;2022-07-22T08:53:54;21.90;99.90
6098;DHT22;3077;50.922;6.584;2022-07-22T08:56:20;22.00;99.90
6098;DHT22;3077;50.922;6.584;2022-07-22T08:58:46;22.10;99.90
6098;DHT22;3077;50.922;6.584;2022-07-22T09:01:16;22.30;99.90
6098;DHT22;3077;50.922;6.584;2022-07-22T09:03:51;22.50;99.90
6098;DHT22;3077;50.922;6.584;2022-07-22T09:06:19;22.60;99.90
6098;DHT22;3077;50.922;6.584;2022-07-22T09:09:00;22.50;99.90
6098;DHT22;3077;50.922;6.584;2022-07-22T09:11:29;22.60;99.90
6098;DHT22;3077;50.922;6.584;2022-07-22T09:13:55;22.60;99.90
6098;DHT22;3077;50.922;6.584;2022-07-22T09:16:42;22.50;99.90
6098;DHT22;3077;50.922;6.584;2022-07-22T09:19:08;22.50;99.90
6098;DHT22;3077;50.922;6.584;2022-07-22T09:21:39;22.30;99.90
6098;DHT22;3077;50.922;6.584;2022-07-22T09:24:05;22.30;99.90
6098;DHT22;3077;50.922;6.584;2022-07-22T09:26:39;22.40;99.90
6098;DHT22;3077;50.922;6.584;2022-07-22T09:29:05;22.50;99.90
6098;DHT22;3077;50.922;6.584;2022-07-22T09:31:36;22.50;99.90
6098;DHT22;3077;50.922;6.584;2022-07-22T09:34:02;22.40;99.90
6098;DHT22;3077;50.922;6.584;2022-07-22T09:36:28;22.20;99.90
6098;DHT22;3077;50.922;6.584;2022-07-22T09:38:54;22.30;99.90
6098;DHT22;3077;50.922;6.584;2022-07-22T09:41:20;22.50;99.90
6098;DHT22;3077;50.922;6.584;2022-07-22T09:43:46;22.60;99.90
6098;DHT22;3077;50.922;6.584;2022-07-22T09:46:12;22.60;99.90
6098;DHT22;3077;50.922;6.584;2022-07-22T09:48:38;22.50;99.90
6098;DHT22;3077;50.922;6.584;2022-07-22T09:51:05;22.60;99.90
6098;DHT22;3077;50.922;6.584;2022-07-22T09:53:32;23.00;99.90
6098;DHT22;3077;50.922;6.584;2022-07-22T09:56:00;23.30;99.90
6098;DHT22;3077;50.922;6.584;2022-07-22T09:58:27;23.50;99.90
6098;DHT22;3077;50.922;6.584;2022-07-22T10:00:54;23.70;99.90
6098;DHT22;3077;50.922;6.584;2022-07-22T10:03:34;24.00;99.90
6098;DHT22;3077;50.922;6.584;2022-07-22T10:06:03;24.20;99.90
6098;DHT22;3077;50.922;6.584;2022-07-22T10:08:31;24.20;99.90
6098;DHT22;3077;50.922;6.584;2022-07-22T10:11:00;24.10;99.90
6098;DHT22;3077;50.922;6.584;2022-07-22T10:13:27;23.70;99.90
6098;DHT22;3077;50.922;6.584;2022-07-22T10:15:54;23.30;99.90
6098;DHT22;3077;50.922;6.584;2022-07-22T10:18:20;22.80;99.90
6098;DHT22;3077;50.922;6.584;2022-07-22T10:20:46;22.60;99.90
6098;DHT22;3077;50.922;6.584;2022-07-22T10:23:13;22.60;99.90
6098;DHT22;3077;50.922;6.584;2022-07-22T10:25:52;22.60;99.90
6098;DHT22;3077;50.922;6.584;2022-07-22T10:28:28;22.50;99.90
6098;DHT22;3077;50.922;6.584;2022-07-22T10:33:44;22.90;99.90
6098;DHT22;3077;50.922;6.584;2022-07-22T10:36:10;23.20;99.90
6098;DHT22;3077;50.922;6.584;2022-07-22T10:38:37;23.50;99.90
6098;DHT22;3077;50.922;6.584;2022-07-22T10:41:04;23.70;99.90
6098;DHT22;3077;50.922;6.584;2022-07-22T10:43:46;24.00;99.90
6098;DHT22;3077;50.922;6.584;2022-07-22T10:46:13;24.10;99.90
6098;DHT22;3077;50.922;6.584;2022-07-22T10:51:09;24.30;99.90
6098;DHT22;3077;50.922;6.584;2022-07-22T10:53:58;24.40;99.90
6098;DHT22;3077;50.922;6.584;2022-07-22T10:56:34;24.50;99.90
6098;DHT22;3077;50.922;6.584;2022-07-22T10:59:11;24.30;99.90
6098;DHT22;3077;50.922;6.584;2022-07-22T11:01:39;24.00;99.90
6098;DHT22;3077;50.922;6.584;2022-07-22T11:04:17;23.90;99.90
6098;DHT22;3077;50.922;6.584;2022-07-22T11:06:44;23.50;99.90
6098;DHT22;3077;50.922;6.584;2022-07-22T11:09:12;23.40;99.90
6098;DHT22;3077;50.922;6.584;2022-07-22T11:14:26;23.70;99.90
6098;DHT22;3077;50.922;6.584;2022-07-22T11:16:56;23.90;99.90
6098;DHT22;3077;50.922;6.584;2022-07-22T11:19:27;24.10;99.90
6098;DHT22;3077;50.922;6.584;2022-07-22T11:21:56;24.50;99.90
6098;DHT22;3077;50.922;6.584;2022-07-22T11:24:23;25.10;99.90
6098;DHT22;3077;50.922;6.584;2022-07-22T11:26:51;25.50;99.90
6098;DHT22;3077;50.922;6.584;2022-07-22T11:29:26;25.90;99.90
6098;DHT22;3077;50.922;6.584;2022-07-22T11:31:53;26.50;99.90
6098;DHT22;3077;50.922;6.584;2022-07-22T11:34:19;26.60;99.90
6098;DHT22;3077;50.922;6.584;2022-07-22T11:36:46;26.50;99.90
6098;DHT22;3077;50.922;6.584;2022-07-22T11:39:13;26.60;99.90
6098;DHT22;3077;50.922;6.584;2022-07-22T11:41:40;26.90;99.90
6098;DHT22;3077;50.922;6.584;2022-07-22T11:44:06;27.10;99.90
6098;DHT22;3077;50.922;6.584;2022-07-22T11:46:37;26.90;99.90
6098;DHT22;3077;50.922;6.584;2022-07-22T11:49:03;26.80;99.90
6098;DHT22;3077;50.922;6.584;2022-07-22T11:51:30;26.90;99.90
6098;DHT22;3077;50.922;6.584;2022-07-22T11:53:57;26.80;99.90
6098;DHT22;3077;50.922;6.584;2022-07-22T11:56:23;26.80;99.90
6098;DHT22;3077;50.922;6.584;2022-07-22T11:58:50;27.00;99.90
6098;DHT22;3077;50.922;6.584;2022-07-22T12:01:19;27.00;99.90
6098;DHT22;3077;50.922;6.584;2022-07-22T12:03:49;26.60;99.90
6098;DHT22;3077;50.922;6.584;2022-07-22T12:06:17;26.40;99.90
6098;DHT22;3077;50.922;6.584;2022-07-22T12:08:45;26.80;99.90
6098;DHT22;3077;50.922;6.584;2022-07-22T12:11:14;27.50;99.90
6098;DHT22;3077;50.922;6.584;2022-07-22T12:13:45;28.00;99.90
6098;DHT22;3077;50.922;6.584;2022-07-22T12:16:28;28.60;99.90
6098;DHT22;3077;50.922;6.584;2022-07-22T12:19:11;28.90;98.30
6098;DHT22;3077;50.922;6.584;2022-07-22T12:22:03;29.20;96.10
6098;DHT22;3077;50.922;6.584;2022-07-22T12:24:35;29.40;95.90
6098;DHT22;3077;50.922;6.584;2022-07-22T12:27:04;29.50;95.50
6098;DHT22;3077;50.922;6.584;2022-07-22T12:29:42;29.90;94.90
6098;DHT22;3077;50.922;6.584;2022-07-22T12:32:11;30.10;93.90
6098;DHT22;3077;50.922;6.584;2022-07-22T12:34:42;30.30;92.40
6098;DHT22;3077;50.922;6.584;2022-07-22T12:39:38;30.50;90.10
6098;DHT22;3077;50.922;6.584;2022-07-22T12:42:16;30.40;81.30
6098;DHT22;3077;50.922;6.584;2022-07-22T12:44:50;29.90;75.00
6098;DHT22;3077;50.922;6.584;2022-07-22T12:47:16;29.80;78.00
6098;DHT22;3077;50.922;6.584;2022-07-22T12:49:42;30.30;82.20
6098;DHT22;3077;50.922;6.584;2022-07-22T12:52:13;30.80;84.00
6098;DHT22;3077;50.922;6.584;2022-07-22T12:54:40;31.00;74.50
6098;DHT22;3077;50.922;6.584;2022-07-22T12:57:07;31.30;77.40
6098;DHT22;3077;50.922;6.584;2022-07-22T12:59:35;31.50;71.70
6098;DHT22;3077;50.922;6.584;2022-07-22T13:02:02;31.80;70.80
6098;DHT22;3077;50.922;6.584;2022-07-22T13:04:28;31.80;67.50
6098;DHT22;3077;50.922;6.584;2022-07-22T13:06:54;31.80;69.90
6098;DHT22;3077;50.922;6.584;2022-07-22T13:09:19;31.90;70.70
6098;DHT22;3077;50.922;6.584;2022-07-22T13:11:45;31.40;61.80
6098;DHT22;3077;50.922;6.584;2022-07-22T13:14:12;31.10;65.70
6098;DHT22;3077;50.922;6.584;2022-07-22T13:16:39;30.90;66.50
6098;DHT22;3077;50.922;6.584;2022-07-22T13:19:04;30.60;66.60
6098;DHT22;3077;50.922;6.584;2022-07-22T13:21:30;30.30;63.50
6098;DHT22;3077;50.922;6.584;2022-07-22T13:23:56;30.50;68.40
6098;DHT22;3077;50.922;6.584;2022-07-22T13:26:21;30.70;66.10
6098;DHT22;3077;50.922;6.584;2022-07-22T13:28:47;30.80;65.80
6098;DHT22;3077;50.922;6.584;2022-07-22T13:31:13;31.20;63.40
6098;DHT22;3077;50.922;6.584;2022-07-22T13:33:39;31.80;60.90
6098;DHT22;3077;50.922;6.584;2022-07-22T13:36:05;32.40;58.60
6098;DHT22;3077;50.922;6.584;2022-07-22T13:38:31;33.10;56.20
6098;DHT22;3077;50.922;6.584;2022-07-22T13:40:57;33.70;54.00
6098;DHT22;3077;50.922;6.584;2022-07-22T13:43:24;34.40;50.20
6098;DHT22;3077;50.922;6.584;2022-07-22T13:45:50;34.30;45.60
6098;DHT22;3077;50.922;6.584;2022-07-22T13:48:16;34.00;45.00
6098;DHT22;3077;50.922;6.584;2022-07-22T13:50:46;34.30;47.40
6098;DHT22;3077;50.922;6.584;2022-07-22T13:53:12;34.30;42.90
6098;DHT22;3077;50.922;6.584;2022-07-22T13:55:38;33.80;43.20
6098;DHT22;3077;50.922;6.584;2022-07-22T13:58:04;33.70;43.50
6098;DHT22;3077;50.922;6.584;2022-07-22T14:00:31;34.10;43.10
6098;DHT22;3077;50.922;6.584;2022-07-22T14:02:56;33.80;41.00
6098;DHT22;3077;50.922;6.584;2022-07-22T14:05:22;33.10;43.50
6098;DHT22;3077;50.922;6.584;2022-07-22T14:07:48;32.70;43.40
6098;DHT22;3077;50.922;6.584;2022-07-22T14:10:14;32.60;47.10
6098;DHT22;3077;50.922;6.584;2022-07-22T14:12:40;32.80;47.10
6098;DHT22;3077;50.922;6.584;2022-07-22T14:15:07;33.20;45.00
6098;DHT22;3077;50.922;6.584;2022-07-22T14:17:33;33.50;44.70
6098;DHT22;3077;50.922;6.584;2022-07-22T14:19:59;33.70;43.50
6098;DHT22;3077;50.922;6.584;2022-07-22T14:22:25;33.70;43.70
6098;DHT22;3077;50.922;6.584;2022-07-22T14:24:51;33.10;42.60
6098;DHT22;3077;50.922;6.584;2022-07-22T14:27:17;31.80;44.70
6098;DHT22;3077;50.922;6.584;2022-07-22T14:29:43;31.40;45.70
6098;DHT22;3077;50.922;6.584;2022-07-22T14:32:08;30.80;46.90
6098;DHT22;3077;50.922;6.584;2022-07-22T14:34:34;29.70;48.70
6098;DHT22;3077;50.922;6.584;2022-07-22T14:36:59;29.00;51.30
6098;DHT22;3077;50.922;6.584;2022-07-22T14:39:25;28.90;54.00
6098;DHT22;3077;50.922;6.584;2022-07-22T14:41:51;28.90;53.80
6098;DHT22;3077;50.922;6.584;2022-07-22T14:44:16;29.00;55.50
6098;DHT22;3077;50.922;6.584;2022-07-22T14:46:42;29.00;56.30
6098;DHT22;3077;50.922;6.584;2022-07-22T14:49:08;29.10;56.50
6098;DHT22;3077;50.922;6.584;2022-07-22T14:51:34;29.20;55.40
6098;DHT22;3077;50.922;6.584;2022-07-22T14:54:00;29.30;56.70
6098;DHT22;3077;50.922;6.584;2022-07-22T14:56:25;29.50;55.80
6098;DHT22;3077;50.922;6.584;2022-07-22T14:58:51;29.70;56.90
6098;DHT22;3077;50.922;6.584;2022-07-22T15:01:17;29.80;56.30
6098;DHT22;3077;50.922;6.584;2022-07-22T15:03:43;29.90;55.60
6098;DHT22;3077;50.922;6.584;2022-07-22T15:06:09;30.10;54.30
6098;DHT22;3077;50.922;6.584;2022-07-22T15:08:35;30.00;55.40
6098;DHT22;3077;50.922;6.584;2022-07-22T15:11:00;30.10;55.40
6098;DHT22;3077;50.922;6.584;2022-07-22T15:13:27;30.30;56.40
6098;DHT22;3077;50.922;6.584;2022-07-22T15:15:54;30.50;52.90
6098;DHT22;3077;50.922;6.584;2022-07-22T15:18:19;30.60;54.00
6098;DHT22;3077;50.922;6.584;2022-07-22T15:20:45;30.80;53.30
6098;DHT22;3077;50.922;6.584;2022-07-22T15:23:11;31.20;52.20
6098;DHT22;3077;50.922;6.584;2022-07-22T15:25:36;31.50;52.10
6098;DHT22;3077;50.922;6.584;2022-07-22T15:28:03;31.70;51.40
6098;DHT22;3077;50.922;6.584;2022-07-22T15:30:29;31.90;51.20
6098;DHT22;3077;50.922;6.584;2022-07-22T15:32:54;31.90;50.50
6098;DHT22;3077;50.922;6.584;2022-07-22T15:35:20;31.80;48.80
6098;DHT22;3077;50.922;6.584;2022-07-22T15:37:46;31.70;49.80
6098;DHT22;3077;50.922;6.584;2022-07-22T15:40:11;31.60;50.30
6098;DHT22;3077;50.922;6.584;2022-07-22T15:42:39;31.80;49.30
6098;DHT22;3077;50.922;6.584;2022-07-22T15:45:05;32.50;48.40
6098;DHT22;3077;50.922;6.584;2022-07-22T15:47:31;33.10;47.40
6098;DHT22;3077;50.922;6.584;2022-07-22T15:49:57;33.70;46.50
6098;DHT22;3077;50.922;6.584;2022-07-22T15:52:23;34.40;44.10
6098;DHT22;3077;50.922;6.584;2022-07-22T15:54:48;34.70;39.80
6098;DHT22;3077;50.922;6.584;2022-07-22T15:57:14;34.60;40.60
6098;DHT22;3077;50.922;6.584;2022-07-22T15:59:58;34.30;38.30
6098;DHT22;3077;50.922;6.584;2022-07-22T16:02:24;33.70;39.30
6098;DHT22;3077;50.922;6.584;2022-07-22T16:04:50;33.30;41.80
6098;DHT22;3077;50.922;6.584;2022-07-22T16:07:16;33.20;40.20
6098;DHT22;3077;50.922;6.584;2022-07-22T16:09:41;33.10;41.30